Time;durP1;ratioP1;P1;durP2;ratioP2;P2;SDS_P1;SDS_P2;PMS_P1;PMS_P2;Temp;Humidity;BMP_temperature;BMP_pressure;BME280_temperature;BME280_humidity;BME280_pressure;Samples;Min_cycle;Max_cycle;Signal;HPM_P1;HPM_P2
2022/05/09 00:02:16;;;;;;;5.57;5.07;;;;;;;;;;4970978;28;20056;-79
2022/05/09 00:04:43;;;;;;;8.75;5.53;;;;;;;;;;4955151;29;20213;-79
2022/05/09 00:07:11;;;;;;;8.13;5.30;;;;;;;;;;4954918;29;20062;-79
2022/05/09 00:09:38;;;;;;;9.05;5.40;;;;;;;;;;4954338;29;20047;-79
2022/05/09 00:12:06;;;;;;;7.05;5.38;;;;;;;;;;4957779;28;20030;-78
2022/05/09 00:14:33;;;;;;;5.65;5.15;;;;;;;;;;4969492;28;20048;-79
2022/05/09 00:17:01;;;;;;;7.05;6.35;;;;;;;;;;4954253;29;20061;-79
2022/05/09 00:19:28;;;;;;;6.25;5.32;;;;;;;;;;4951870;29;20076;-79
2022/05/09 00:21:55;;;;;;;8.48;5.75;;;;;;;;;;4970456;28;20031;-78
2022/05/09 00:24:23;;;;;;;6.28;5.78;;;;;;;;;;4955225;29;20036;-79
2022/05/09 00:26:52;;;;;;;10.80;5.60;;;;;;;;;;4952640;29;20055;-79
2022/05/09 00:29:20;;;;;;;6.40;5.80;;;;;;;;;;4949853;29;20044;-79
2022/05/09 00:31:49;;;;;;;6.10;5.60;;;;;;;;;;4966316;28;20080;-79
2022/05/09 00:34:17;;;;;;;8.32;5.70;;;;;;;;;;4949805;29;20301;-79
2022/05/09 00:36:46;;;;;;;7.65;5.63;;;;;;;;;;4957978;28;20052;-79
2022/05/09 00:39:14;;;;;;;5.47;5.07;;;;;;;;;;4940468;29;20043;-79
2022/05/09 00:41:42;;;;;;;6.15;5.50;;;;;;;;;;4946606;29;20144;-79
2022/05/09 00:44:17;;;;;;;7.50;5.50;;;;;;;;;;4935878;29;20067;-79
2022/05/09 00:46:49;;;;;;;5.70;5.30;;;;;;;;;;4927767;29;20102;-79
2022/05/09 00:49:30;;;;;;;6.18;5.65;;;;;;;;;;4942608;29;20040;-80
2022/05/09 00:52:00;;;;;;;6.63;5.68;;;;;;;;;;4955708;29;20085;-80
2022/05/09 00:54:30;;;;;;;5.53;5.13;;;;;;;;;;4951157;28;20053;-80
2022/05/09 00:57:02;;;;;;;9.10;5.93;;;;;;;;;;4936675;29;20143;-80
2022/05/09 00:59:31;;;;;;;5.93;5.43;;;;;;;;;;4937340;29;20063;-80
2022/05/09 01:01:59;;;;;;;6.18;5.65;;;;;;;;;;4938764;29;20048;-80
2022/05/09 01:04:28;;;;;;;5.40;5.10;;;;;;;;;;4920755;29;20047;-80
2022/05/09 01:06:56;;;;;;;6.30;5.70;;;;;;;;;;4933813;29;20102;-79
2022/05/09 01:09:25;;;;;;;7.05;6.38;;;;;;;;;;4954203;29;20063;-80
2022/05/09 01:11:53;;;;;;;7.25;5.68;;;;;;;;;;4961959;28;20040;-79
2022/05/09 01:14:25;;;;;;;5.88;5.00;;;;;;;;;;4956905;28;20094;-79
2022/05/09 01:17:00;;;;;;;5.53;5.13;;;;;;;;;;4943579;29;20127;-79
2022/05/09 01:19:32;;;;;;;6.20;5.70;;;;;;;;;;4937642;29;20166;-79
2022/05/09 01:21:59;;;;;;;;;;;;;;;;;;4936923;29;20352;-79
2022/05/09 01:24:28;;;;;;;5.95;5.45;;;;;;;;;;4935327;29;19930;-79
2022/05/09 01:26:56;;;;;;;6.68;6.18;;;;;;;;;;4957968;28;20130;-78
2022/05/09 01:29:38;;;;;;;8.85;6.28;;;;;;;;;;4938213;29;20064;-79
2022/05/09 01:32:08;;;;;;;6.13;5.60;;;;;;;;;;4924190;29;20047;-79
2022/05/09 01:34:37;;;;;;;7.95;5.55;;;;;;;;;;4934336;29;20078;-79
2022/05/09 01:37:07;;;;;;;7.40;5.50;;;;;;;;;;4936138;29;20091;-79
2022/05/09 01:39:36;;;;;;;6.50;5.93;;;;;;;;;;4934571;29;20119;-78
2022/05/09 01:42:04;;;;;;;6.97;6.07;;;;;;;;;;4944180;29;20496;-78
2022/05/09 01:44:32;;;;;;;7.57;6.20;;;;;;;;;;4916831;29;20136;-78
2022/05/09 01:49:45;;;;;;;6.18;5.57;;;;;;;;;;4936017;29;20139;-79
2022/05/09 01:52:16;;;;;;;8.05;5.75;;;;;;;;;;4937046;29;20044;-79
2022/05/09 01:54:44;;;;;;;5.93;5.20;;;;;;;;;;4940473;28;20094;-79
2022/05/09 01:57:12;;;;;;;6.10;5.50;;;;;;;;;;4941692;29;20047;-79
2022/05/09 01:59:40;;;;;;;6.07;5.53;;;;;;;;;;4935396;29;20043;-79
2022/05/09 02:02:09;;;;;;;9.52;5.90;;;;;;;;;;4936947;29;20055;-79
2022/05/09 02:04:40;;;;;;;6.25;5.65;;;;;;;;;;4919987;29;20142;-79
2022/05/09 02:07:09;;;;;;;9.38;5.57;;;;;;;;;;4950046;28;20322;-78
2022/05/09 02:09:38;;;;;;;6.40;5.90;;;;;;;;;;4946024;28;20525;-79
2022/05/09 02:12:06;;;;;;;7.10;6.38;;;;;;;;;;4944310;29;20523;-77
2022/05/09 02:14:34;;;;;;;7.53;6.13;;;;;;;;;;4935272;29;20063;-79
2022/05/09 02:17:02;;;;;;;6.60;6.00;;;;;;;;;;4936219;29;20521;-79
2022/05/09 02:19:29;;;;;;;9.95;6.65;;;;;;;;;;4919617;29;20462;-78
2022/05/09 02:21:56;;;;;;;6.55;5.78;;;;;;;;;;4934365;29;20048;-79
2022/05/09 02:24:24;;;;;;;7.30;6.10;;;;;;;;;;4917937;29;20067;-79
2022/05/09 02:26:51;;;;;;;6.82;6.13;;;;;;;;;;4941943;29;20052;-79
2022/05/09 02:29:19;;;;;;;6.03;5.53;;;;;;;;;;4946241;29;20054;-79
2022/05/09 02:31:46;;;;;;;6.20;5.63;;;;;;;;;;4942280;28;20087;-79
2022/05/09 02:34:14;;;;;;;6.38;5.80;;;;;;;;;;4949748;29;20062;-79
2022/05/09 02:36:42;;;;;;;10.10;7.00;;;;;;;;;;4933913;29;20051;-79
2022/05/09 02:39:09;;;;;;;6.65;6.05;;;;;;;;;;4932386;29;20060;-79
2022/05/09 02:41:36;;;;;;;6.35;5.85;;;;;;;;;;4941537;29;20070;-79
2022/05/09 02:44:04;;;;;;;7.47;6.22;;;;;;;;;;4935849;29;20040;-79
2022/05/09 02:46:31;;;;;;;6.75;6.10;;;;;;;;;;4937223;29;20039;-79
2022/05/09 02:48:59;;;;;;;6.60;6.00;;;;;;;;;;4935943;29;20127;-78
2022/05/09 02:51:27;;;;;;;6.78;6.20;;;;;;;;;;4936358;29;20356;-79
2022/05/09 02:53:57;;;;;;;8.20;6.10;;;;;;;;;;4932093;29;20060;-80
2022/05/09 02:56:25;;;;;;;7.13;6.45;;;;;;;;;;4934868;29;20569;-76
2022/05/09 02:58:52;;;;;;;6.38;5.88;;;;;;;;;;4936607;29;20074;-79
2022/05/09 03:01:19;;;;;;;6.82;6.30;;;;;;;;;;4918093;29;20055;-79
2022/05/09 03:06:35;;;;;;;6.53;5.53;;;;;;;;;;4924874;29;20051;-79
2022/05/09 03:09:02;;;;;;;6.25;5.70;;;;;;;;;;4950625;29;20036;-79
2022/05/09 03:11:30;;;;;;;6.97;6.38;;;;;;;;;;4931525;29;20421;-79
2022/05/09 03:13:57;;;;;;;6.88;6.28;;;;;;;;;;4934277;29;20043;-79
2022/05/09 03:16:27;;;;;;;7.38;6.55;;;;;;;;;;4933845;29;20062;-79
2022/05/09 03:18:55;;;;;;;6.40;5.80;;;;;;;;;;4936187;29;20051;-80
2022/05/09 03:21:23;;;;;;;7.05;6.43;;;;;;;;;;4945983;28;20075;-79
2022/05/09 03:23:50;;;;;;;6.07;5.57;;;;;;;;;;4929575;29;20119;-78
2022/05/09 03:26:18;;;;;;;6.35;5.75;;;;;;;;;;4948072;28;20051;-79
2022/05/09 03:28:45;;;;;;;6.95;6.35;;;;;;;;;;4933162;29;20059;-79
2022/05/09 03:31:13;;;;;;;7.10;6.40;;;;;;;;;;4935302;29;20044;-79
2022/05/09 03:33:41;;;;;;;7.35;6.65;;;;;;;;;;4934846;29;20054;-79
2022/05/09 03:36:08;;;;;;;6.43;5.82;;;;;;;;;;4932358;29;20413;-79
2022/05/09 03:38:37;;;;;;;6.63;5.97;;;;;;;;;;4933151;29;20060;-79
2022/05/09 03:41:04;;;;;;;8.65;6.82;;;;;;;;;;4942627;29;20529;-79
2022/05/09 03:43:32;;;;;;;7.90;6.10;;;;;;;;;;4934590;29;20044;-79
2022/05/09 03:46:00;;;;;;;6.32;5.82;;;;;;;;;;4930643;29;20052;-79
2022/05/09 03:48:28;;;;;;;7.35;6.75;;;;;;;;;;4935339;29;20048;-79
2022/05/09 03:50:56;;;;;;;8.43;7.55;;;;;;;;;;4955225;28;20039;-79
2022/05/09 03:53:24;;;;;;;8.48;7.68;;;;;;;;;;4945988;28;20718;-79
2022/05/09 03:55:52;;;;;;;8.07;7.30;;;;;;;;;;4948868;28;20039;-79
2022/05/09 03:58:19;;;;;;;7.72;7.10;;;;;;;;;;4917281;29;20062;-79
2022/05/09 04:00:48;;;;;;;8.13;6.50;;;;;;;;;;4934725;29;20048;-80
2022/05/09 04:03:15;;;;;;;7.35;6.65;;;;;;;;;;4931121;29;20438;-80
2022/05/09 04:05:43;;;;;;;8.73;7.28;;;;;;;;;;4929648;29;20047;-79
2022/05/09 04:08:12;;;;;;;8.07;7.28;;;;;;;;;;4947529;29;20044;-79
2022/05/09 04:10:40;;;;;;;8.10;7.15;;;;;;;;;;4935676;29;20457;-80
2022/05/09 04:13:07;;;;;;;8.48;6.45;;;;;;;;;;4936181;29;20044;-79
2022/05/09 04:18:22;;;;;;;9.63;6.68;;;;;;;;;;4935609;29;20517;-79
2022/05/09 04:20:50;;;;;;;7.60;6.90;;;;;;;;;;4951747;28;20079;-79
2022/05/09 04:23:19;;;;;;;7.40;6.80;;;;;;;;;;4931712;29;20531;-78
2022/05/09 04:25:47;;;;;;;14.20;6.45;;;;;;;;;;4933397;29;20063;-78
2022/05/09 04:28:17;;;;;;;6.65;6.10;;;;;;;;;;4949255;28;20044;-79
2022/05/09 04:30:44;;;;;;;8.55;7.28;;;;;;;;;;4940099;29;20050;-80
2022/05/09 04:33:12;;;;;;;10.20;7.20;;;;;;;;;;4936515;29;20050;-79
2022/05/09 04:35:40;;;;;;;7.40;6.80;;;;;;;;;;4938684;29;20100;-79
2022/05/09 04:38:12;;;;;;;7.20;6.63;;;;;;;;;;4941729;29;20051;-79
2022/05/09 04:40:41;;;;;;;7.32;6.63;;;;;;;;;;4946591;28;20054;-78
2022/05/09 04:43:08;;;;;;;9.57;7.00;;;;;;;;;;4934582;29;20048;-79
2022/05/09 04:45:36;;;;;;;8.65;6.15;;;;;;;;;;4951212;28;20039;-79
2022/05/09 04:48:06;;;;;;;7.28;6.60;;;;;;;;;;4936442;29;20040;-79
2022/05/09 04:50:34;;;;;;;8.07;6.97;;;;;;;;;;4954793;28;20032;-80
2022/05/09 04:53:03;;;;;;;7.68;6.80;;;;;;;;;;4940890;29;20047;-80
2022/05/09 04:55:31;;;;;;;7.40;6.80;;;;;;;;;;4936074;29;20047;-79
2022/05/09 04:58:03;;;;;;;7.55;6.90;;;;;;;;;;4955484;28;20078;-79
2022/05/09 05:00:30;;;;;;;7.70;7.10;;;;;;;;;;4919572;29;20067;-79
2022/05/09 05:02:58;;;;;;;7.55;6.80;;;;;;;;;;4933410;29;20043;-79
2022/05/09 05:05:26;;;;;;;7.05;6.55;;;;;;;;;;4941126;29;20189;-79
2022/05/09 05:07:54;;;;;;;7.45;6.75;;;;;;;;;;4932182;29;20032;-80
2022/05/09 05:10:26;;;;;;;8.48;6.65;;;;;;;;;;4951634;28;20050;-79
2022/05/09 05:12:54;;;;;;;8.55;7.03;;;;;;;;;;4938539;28;20042;-79
2022/05/09 05:15:21;;;;;;;6.85;6.25;;;;;;;;;;4946077;29;20055;-79
2022/05/09 05:17:48;;;;;;;8.23;7.53;;;;;;;;;;4925345;29;20690;-79
2022/05/09 05:20:16;;;;;;;8.45;7.60;;;;;;;;;;4928906;29;20063;-80
2022/05/09 05:22:47;;;;;;;8.93;6.63;;;;;;;;;;4933159;28;20596;-86
2022/05/09 05:25:16;;;;;;;7.23;6.63;;;;;;;;;;4926845;29;20553;-78
2022/05/09 05:27:44;;;;;;;8.48;6.50;;;;;;;;;;4932638;29;20048;-79
2022/05/09 05:30:11;;;;;;;8.20;7.00;;;;;;;;;;4947109;28;20043;-79
2022/05/09 05:32:41;;;;;;;7.47;6.65;;;;;;;;;;4920407;29;20528;-79
2022/05/09 05:35:13;;;;;;;7.15;6.47;;;;;;;;;;4932220;29;20048;-79
2022/05/09 05:37:41;;;;;;;6.78;6.28;;;;;;;;;;4933740;29;20169;-78
2022/05/09 05:40:09;;;;;;;6.78;6.18;;;;;;;;;;4934811;29;20047;-78
2022/05/09 05:42:39;;;;;;;9.07;6.78;;;;;;;;;;4928531;29;20099;-79
2022/05/09 05:45:07;;;;;;;7.18;6.57;;;;;;;;;;4930223;29;20090;-80
2022/05/09 05:47:35;;;;;;;7.50;7.00;;;;;;;;;;4931692;29;20508;-79
2022/05/09 05:50:05;;;;;;;7.40;6.65;;;;;;;;;;4925252;29;20044;-79
2022/05/09 05:52:33;;;;;;;7.72;7.00;;;;;;;;;;4935938;29;20067;-79
2022/05/09 05:55:01;;;;;;;7.80;7.10;;;;;;;;;;4936600;29;20043;-79
2022/05/09 05:57:29;;;;;;;7.10;6.30;;;;;;;;;;4932503;29;20047;-79
2022/05/09 06:00:07;;;;;;;7.00;6.30;;;;;;;;;;4931277;29;20044;-79
2022/05/09 06:02:42;;;;;;;6.97;6.38;;;;;;;;;;4931840;29;20466;-80
2022/05/09 06:05:10;;;;;;;8.07;7.10;;;;;;;;;;4935894;29;20032;-79
2022/05/09 06:07:38;;;;;;;7.53;6.90;;;;;;;;;;4940085;29;20048;-79
2022/05/09 06:10:07;;;;;;;7.88;7.07;;;;;;;;;;4948879;29;20040;-79
2022/05/09 06:12:34;;;;;;;7.50;6.90;;;;;;;;;;4950073;28;20139;-79
2022/05/09 06:17:48;;;;;;;8.60;7.80;;;;;;;;;;4932650;29;20047;-80
2022/05/09 06:20:16;;;;;;;8.48;7.78;;;;;;;;;;4930025;29;20162;-79
2022/05/09 06:22:43;;;;;;;7.93;7.13;;;;;;;;;;4932057;29;20055;-79
2022/05/09 06:25:12;;;;;;;8.88;7.90;;;;;;;;;;4935695;29;20047;-78
2022/05/09 06:27:41;;;;;;;9.15;8.25;;;;;;;;;;4918055;29;20051;-79
2022/05/09 06:30:10;;;;;;;10.77;7.93;;;;;;;;;;4947627;28;20052;-79
2022/05/09 06:32:38;;;;;;;12.70;8.02;;;;;;;;;;4930183;29;20046;-80
2022/05/09 06:35:06;;;;;;;9.63;7.22;;;;;;;;;;4914595;29;20051;-79
2022/05/09 06:37:35;;;;;;;8.10;7.30;;;;;;;;;;4929772;29;20048;-79
2022/05/09 06:40:03;;;;;;;10.70;7.57;;;;;;;;;;4940732;28;20041;-78
2022/05/09 06:42:31;;;;;;;7.78;7.18;;;;;;;;;;4928941;29;20044;-78
2022/05/09 06:44:59;;;;;;;7.30;6.70;;;;;;;;;;4928872;29;20048;-78
2022/05/09 06:47:26;;;;;;;9.45;7.10;;;;;;;;;;4944169;28;20039;-79
2022/05/09 06:49:53;;;;;;;7.93;7.13;;;;;;;;;;4933160;29;20362;-79
2022/05/09 06:52:21;;;;;;;7.45;6.75;;;;;;;;;;4932109;29;20048;-79
2022/05/09 06:54:48;;;;;;;7.28;6.57;;;;;;;;;;4928510;29;20146;-79
2022/05/09 06:57:15;;;;;;;8.90;6.80;;;;;;;;;;4930237;29;20319;-78
2022/05/09 06:59:42;;;;;;;7.22;6.63;;;;;;;;;;4931713;29;20043;-76
2022/05/09 07:02:14;;;;;;;6.78;6.22;;;;;;;;;;4928059;29;20107;-78
2022/05/09 07:04:41;;;;;;;6.32;5.72;;;;;;;;;;4929379;29;20051;-79
2022/05/09 07:07:09;;;;;;;7.28;6.65;;;;;;;;;;4929134;29;20055;-78
2022/05/09 07:09:36;;;;;;;6.07;5.65;;;;;;;;;;4926054;29;20553;-80
2022/05/09 07:12:03;;;;;;;6.90;6.00;;;;;;;;;;4949078;28;20528;-80
2022/05/09 07:14:33;;;;;;;6.03;5.45;;;;;;;;;;4932422;29;20043;-78
2022/05/09 07:17:01;;;;;;;6.70;5.60;;;;;;;;;;4918927;29;20043;-79
2022/05/09 07:19:28;;;;;;;8.70;5.80;;;;;;;;;;4931473;29;20091;-80
2022/05/09 07:21:56;;;;;;;5.53;5.03;;;;;;;;;;4930388;29;20047;-80
2022/05/09 07:24:23;;;;;;;5.30;4.80;;;;;;;;;;4946770;29;20074;-79
2022/05/09 07:26:51;;;;;;;5.20;4.72;;;;;;;;;;4927764;29;20060;-80
2022/05/09 07:29:18;;;;;;;6.10;5.38;;;;;;;;;;4930243;29;20059;-79
2022/05/09 07:31:45;;;;;;;7.03;4.68;;;;;;;;;;4932540;29;20048;-80
2022/05/09 07:34:13;;;;;;;8.00;5.63;;;;;;;;;;4930018;29;20059;-80
2022/05/09 07:36:41;;;;;;;5.75;5.03;;;;;;;;;;4928522;29;20048;-77
2022/05/09 07:39:10;;;;;;;8.45;4.72;;;;;;;;;;4917810;29;20055;-78
2022/05/09 07:41:39;;;;;;;7.80;4.50;;;;;;;;;;4936684;28;20095;-77
2022/05/09 07:44:06;;;;;;;5.22;4.72;;;;;;;;;;4931471;29;20044;-79
2022/05/09 07:46:34;;;;;;;6.55;4.78;;;;;;;;;;4944512;28;20043;-79
2022/05/09 07:49:17;;;;;;;4.97;4.57;;;;;;;;;;4935858;29;20043;-77
2022/05/09 07:51:44;;;;;;;5.15;4.65;;;;;;;;;;4935755;29;20111;-76
2022/05/09 07:54:11;;;;;;;5.32;4.80;;;;;;;;;;4938242;29;20047;-79
2022/05/09 07:56:43;;;;;;;5.30;4.68;;;;;;;;;;4935778;29;20054;-80
2022/05/09 07:59:11;;;;;;;5.82;4.70;;;;;;;;;;4933603;29;20450;-80
2022/05/09 08:01:39;;;;;;;5.30;4.80;;;;;;;;;;4931194;29;20074;-79
2022/05/09 08:04:07;;;;;;;5.28;4.53;;;;;;;;;;4938988;29;20043;-80
2022/05/09 08:06:34;;;;;;;4.70;4.28;;;;;;;;;;4951721;28;20044;-80
2022/05/09 08:09:05;;;;;;;4.50;4.20;;;;;;;;;;4937061;29;20425;-79
2022/05/09 08:11:32;;;;;;;4.63;4.25;;;;;;;;;;4940233;29;20076;-80
2022/05/09 08:14:00;;;;;;;4.97;4.50;;;;;;;;;;4937391;29;20048;-78
2022/05/09 08:16:30;;;;;;;4.10;3.80;;;;;;;;;;4937725;29;20044;-80
2022/05/09 08:18:59;;;;;;;4.70;4.28;;;;;;;;;;4929281;29;20043;-79
2022/05/09 08:21:26;;;;;;;5.45;4.18;;;;;;;;;;4950667;28;20063;-79
2022/05/09 08:23:54;;;;;;;5.10;4.47;;;;;;;;;;4933782;29;20748;-79
2022/05/09 08:26:21;;;;;;;4.10;3.70;;;;;;;;;;4937581;29;20051;-79
2022/05/09 08:28:50;;;;;;;4.90;4.38;;;;;;;;;;4936400;29;20043;-80
2022/05/09 08:31:18;;;;;;;4.10;3.90;;;;;;;;;;4929982;29;20476;-79
2022/05/09 08:33:47;;;;;;;4.97;4.43;;;;;;;;;;4952845;28;20421;-80
2022/05/09 08:36:45;;;;;;;4.50;4.18;;;;;;;;;;4939760;29;20067;-78
2022/05/09 08:39:02;;;;;;;5.00;4.50;;;;;;;;;;4930838;29;20488;-79
2022/05/09 08:41:42;;;;;;;4.22;3.92;;;;;;;;;;4943817;28;20066;-79
2022/05/09 08:44:09;;;;;;;6.45;4.47;;;;;;;;;;4934620;29;20051;-80
2022/05/09 08:46:46;;;;;;;5.60;4.13;;;;;;;;;;4967285;23;20539;-80
2022/05/09 08:52:39;;;;;;;4.20;3.67;;;;;;;;;;4894979;29;20058;-78
2022/05/09 08:55:06;;;;;;;5.30;4.25;;;;;;;;;;4870773;29;20057;-79
2022/05/09 08:57:38;;;;;;;4.95;4.45;;;;;;;;;;4873878;29;20067;-79
2022/05/09 09:00:13;;;;;;;5.77;4.10;;;;;;;;;;4877023;29;20074;-78
2022/05/09 09:02:59;;;;;;;8.15;4.57;;;;;;;;;;4879821;29;20535;-79
2022/05/09 09:05:29;;;;;;;6.05;4.20;;;;;;;;;;4874624;29;20052;-80
2022/05/09 09:08:02;;;;;;;4.55;4.18;;;;;;;;;;4875745;29;20029;-78
2022/05/09 09:10:47;;;;;;;4.75;4.32;;;;;;;;;;4869243;29;20049;-77
2022/05/09 09:13:35;;;;;;;4.32;4.00;;;;;;;;;;4863987;29;20049;-80
2022/05/09 09:16:12;;;;;;;4.63;4.25;;;;;;;;;;4856832;29;20404;-81
2022/05/09 09:18:44;;;;;;;4.78;4.38;;;;;;;;;;4844451;29;20079;-78
2022/05/09 09:21:21;;;;;;;4.65;4.25;;;;;;;;;;4872282;29;20037;-81
2022/05/09 09:24:03;;;;;;;4.50;4.10;;;;;;;;;;4882698;29;20101;-78
2022/05/09 09:26:41;;;;;;;4.70;4.30;;;;;;;;;;4871344;29;20056;-78
2022/05/09 09:29:18;;;;;;;5.43;4.47;;;;;;;;;;4862812;29;20080;-81
2022/05/09 09:31:53;;;;;;;5.18;4.30;;;;;;;;;;4853716;29;20049;-78
2022/05/09 09:34:53;;;;;;;5.38;4.80;;;;;;;;;;4851971;29;20458;-79
2022/05/09 09:37:24;;;;;;;4.32;4.03;;;;;;;;;;4851814;29;20168;-78
2022/05/09 09:39:52;;;;;;;;;;;;;;;;;;4835060;29;20105;-80
2022/05/09 09:42:19;;;;;;;4.80;4.30;;;;;;;;;;4881736;29;19931;-78
2022/05/09 09:44:47;;;;;;;4.15;3.78;;;;;;;;;;4889541;29;20045;-80
2022/05/09 09:47:23;;;;;;;4.35;4.05;;;;;;;;;;4832014;29;20049;-78
2022/05/09 09:50:12;;;;;;;5.30;4.20;;;;;;;;;;4867251;29;20049;-78
2022/05/09 09:52:45;;;;;;;4.35;4.00;;;;;;;;;;4882738;29;20498;-79
2022/05/09 09:55:25;;;;;;;5.13;4.72;;;;;;;;;;4899041;29;20116;-80
2022/05/09 09:57:53;;;;;;;5.45;4.60;;;;;;;;;;4904851;29;20066;-80
2022/05/09 10:00:28;;;;;;;4.55;4.25;;;;;;;;;;4898436;29;20074;-77
2022/05/09 10:03:19;;;;;;;5.30;4.65;;;;;;;;;;4896535;29;20041;-78
2022/05/09 10:05:47;;;;;;;4.22;3.92;;;;;;;;;;4892675;29;20044;-79
2022/05/09 10:08:19;;;;;;;5.00;4.50;;;;;;;;;;4875578;29;20044;-78
2022/05/09 10:11:00;;;;;;;5.32;4.30;;;;;;;;;;4905909;29;20058;-78
2022/05/09 10:13:37;;;;;;;4.82;4.10;;;;;;;;;;4897523;29;20075;-78
2022/05/09 10:16:05;;;;;;;4.85;4.13;;;;;;;;;;4925088;29;21702;-79
2022/05/09 10:18:33;;;;;;;4.93;4.32;;;;;;;;;;4901286;29;20044;-77
2022/05/09 10:24:51;;;;;;;3.80;3.50;;;;;;;;;;4880789;29;20466;-80
2022/05/09 10:27:23;;;;;;;4.85;4.43;;;;;;;;;;4884229;29;20267;-79
2022/05/09 10:29:54;;;;;;;4.38;4.07;;;;;;;;;;4900822;29;20051;-80
2022/05/09 10:32:28;;;;;;;4.63;4.22;;;;;;;;;;4911966;29;20060;-78
2022/05/09 10:35:09;;;;;;;6.80;4.38;;;;;;;;;;4901668;29;20056;-79
2022/05/09 10:37:43;;;;;;;9.55;4.50;;;;;;;;;;4883393;29;20060;-78
2022/05/09 10:40:30;;;;;;;4.35;3.70;;;;;;;;;;4899625;29;20045;-80
2022/05/09 10:43:21;;;;;;;4.28;3.97;;;;;;;;;;4872708;29;20068;-79
2022/05/09 10:45:49;;;;;;;3.90;3.60;;;;;;;;;;4884273;29;20051;-80
2022/05/09 10:48:34;;;;;;;4.50;4.10;;;;;;;;;;4871326;29;20123;-80
2022/05/09 10:51:13;;;;;;;4.45;4.05;;;;;;;;;;4860006;29;20063;-82
2022/05/09 10:54:05;;;;;;;5.88;4.20;;;;;;;;;;4885495;29;20063;-80
2022/05/09 10:56:42;;;;;;;4.13;3.83;;;;;;;;;;4893331;29;20065;-81
2022/05/09 10:59:10;;;;;;;3.67;3.47;;;;;;;;;;4891687;29;20108;-81
2022/05/09 11:01:44;;;;;;;5.10;3.92;;;;;;;;;;4900015;29;20060;-81
2022/05/09 11:04:14;;;;;;;4.65;4.13;;;;;;;;;;4891155;29;20045;-81
2022/05/09 11:06:43;;;;;;;4.72;4.30;;;;;;;;;;4902201;29;20079;-80
2022/05/09 11:09:34;;;;;;;3.85;3.55;;;;;;;;;;4887626;29;20048;-80
2022/05/09 11:12:25;;;;;;;6.65;4.05;;;;;;;;;;4894562;29;20067;-78
2022/05/09 11:14:52;;;;;;;3.80;3.50;;;;;;;;;;4899259;29;20071;-76
2022/05/09 11:17:38;;;;;;;5.63;3.58;;;;;;;;;;4893487;29;20048;-79
2022/05/09 11:20:13;;;;;;;3.60;3.30;;;;;;;;;;4874666;29;20059;-79
2022/05/09 11:22:41;;;;;;;10.80;3.50;;;;;;;;;;4877242;29;20059;-78
2022/05/09 11:25:27;;;;;;;3.85;3.55;;;;;;;;;;4877967;29;20059;-79
2022/05/09 11:28:19;;;;;;;3.03;2.75;;;;;;;;;;4869978;29;20056;-80
2022/05/09 11:30:54;;;;;;;3.42;3.10;;;;;;;;;;4874707;29;20063;-80
2022/05/09 11:33:30;;;;;;;3.55;3.25;;;;;;;;;;4906989;29;20045;-75
2022/05/09 11:36:06;;;;;;;3.97;3.22;;;;;;;;;;4871677;29;20052;-79
2022/05/09 11:38:41;;;;;;;4.32;3.50;;;;;;;;;;4903565;29;20045;-79
2022/05/09 11:41:24;;;;;;;3.30;3.10;;;;;;;;;;4887192;29;20453;-80
2022/05/09 11:43:58;;;;;;;3.95;3.20;;;;;;;;;;4891531;29;20049;-79
2022/05/09 11:46:40;;;;;;;4.85;3.15;;;;;;;;;;4883629;29;20051;-80
2022/05/09 11:49:08;;;;;;;4.22;3.80;;;;;;;;;;4874478;29;20494;-80
2022/05/09 11:51:46;;;;;;;3.83;3.10;;;;;;;;;;4874808;29;20112;-77
2022/05/09 11:54:16;;;;;;;3.80;3.50;;;;;;;;;;4888895;29;20382;-80
2022/05/09 11:56:46;;;;;;;3.92;3.50;;;;;;;;;;4875125;29;20089;-80
2022/05/09 11:59:24;;;;;;;3.85;3.50;;;;;;;;;;4891738;29;20044;-80
2022/05/09 12:01:57;;;;;;;3.75;3.28;;;;;;;;;;4889169;29;20059;-80
2022/05/09 12:04:30;;;;;;;3.50;3.20;;;;;;;;;;4871685;29;20127;-78
2022/05/09 12:06:57;;;;;;;3.72;3.35;;;;;;;;;;4892133;29;20043;-79
2022/05/09 12:09:51;;;;;;;3.35;3.15;;;;;;;;;;4892558;29;20417;-79
2022/05/09 12:12:37;;;;;;;3.53;3.25;;;;;;;;;;4868050;29;20454;-78
2022/05/09 12:15:17;;;;;;;4.55;3.03;;;;;;;;;;4896167;29;20041;-80
2022/05/09 12:18:05;;;;;;;3.78;3.30;;;;;;;;;;4878960;29;20048;-79
2022/05/09 12:20:53;;;;;;;3.17;2.97;;;;;;;;;;4894896;29;20418;-80
2022/05/09 12:23:39;;;;;;;3.35;2.65;;;;;;;;;;4889988;29;20056;-77
2022/05/09 12:26:08;;;;;;;2.28;2.17;;;;;;;;;;4894051;29;20056;-81
2022/05/09 12:28:43;;;;;;;2.30;1.95;;;;;;;;;;4878890;29;20328;-79
2022/05/09 12:31:28;;;;;;;2.25;2.08;;;;;;;;;;4897122;29;20408;-79
2022/05/09 12:33:56;;;;;;;2.45;2.35;;;;;;;;;;4882860;29;20056;-78
2022/05/09 12:36:28;;;;;;;2.80;2.60;;;;;;;;;;4859458;29;20067;-79
2022/05/09 12:39:01;;;;;;;3.90;2.35;;;;;;;;;;4898508;29;20068;-78
2022/05/09 12:41:30;;;;;;;2.80;2.70;;;;;;;;;;4904889;29;20055;-76
2022/05/09 12:44:00;;;;;;;3.17;2.88;;;;;;;;;;4894028;29;20372;-77
2022/05/09 12:46:32;;;;;;;3.05;2.85;;;;;;;;;;4886596;29;20143;-78
2022/05/09 12:49:01;;;;;;;3.85;2.85;;;;;;;;;;4891910;29;20045;-77
2022/05/09 12:51:30;;;;;;;3.10;2.90;;;;;;;;;;4868030;29;20040;-79
2022/05/09 12:53:59;;;;;;;3.83;2.90;;;;;;;;;;4884404;29;20041;-79
2022/05/09 12:56:28;;;;;;;3.28;3.00;;;;;;;;;;4863966;29;20592;-78
2022/05/09 12:59:00;;;;;;;3.30;3.10;;;;;;;;;;4878109;29;20060;-80
2022/05/09 13:01:30;;;;;;;5.75;3.42;;;;;;;;;;4874643;29;20395;-80
2022/05/09 13:04:24;;;;;;;3.35;3.08;;;;;;;;;;4858506;29;20041;-79
2022/05/09 13:06:52;;;;;;;3.95;3.15;;;;;;;;;;4869556;29;20041;-81
2022/05/09 13:09:24;;;;;;;2.63;2.53;;;;;;;;;;4852203;29;20108;-79
2022/05/09 13:12:03;;;;;;;2.75;2.55;;;;;;;;;;4863131;29;20050;-77
2022/05/09 13:14:31;;;;;;;2.80;2.60;;;;;;;;;;4870882;29;20041;-79
2022/05/09 13:17:04;;;;;;;6.53;3.05;;;;;;;;;;4854748;29;20553;-78
2022/05/09 13:19:45;;;;;;;3.65;3.08;;;;;;;;;;4886006;29;20041;-79
2022/05/09 13:22:18;;;;;;;3.00;2.80;;;;;;;;;;4867431;29;20101;-79
2022/05/09 13:24:46;;;;;;;3.13;2.70;;;;;;;;;;4876536;29;20052;-81
2022/05/09 13:27:14;;;;;;;2.97;2.67;;;;;;;;;;4843187;29;20041;-80
2022/05/09 13:29:45;;;;;;;;;;;;;;;;;;4873680;29;20117;-81
2022/05/09 13:32:23;;;;;;;2.80;2.60;;;;;;;;;;4879759;29;20384;-81
2022/05/09 13:34:52;;;;;;;3.20;2.88;;;;;;;;;;4859431;29;20041;-80
2022/05/09 13:37:27;;;;;;;3.08;2.20;;;;;;;;;;4880583;29;20114;-79
2022/05/09 13:39:56;;;;;;;2.08;1.98;;;;;;;;;;4866404;29;20049;-79
2022/05/09 13:42:28;;;;;;;2.00;1.90;;;;;;;;;;4878255;29;20569;-81
2022/05/09 13:44:57;;;;;;;4.68;2.03;;;;;;;;;;4862035;29;20482;-79
2022/05/09 13:47:37;;;;;;;4.53;2.08;;;;;;;;;;4861619;29;20049;-79
2022/05/09 13:50:05;;;;;;;2.35;1.75;;;;;;;;;;4866631;29;20041;-80
2022/05/09 13:52:38;;;;;;;2.08;1.52;;;;;;;;;;4894746;29;20052;-80
2022/05/09 13:55:06;;;;;;;1.30;1.30;;;;;;;;;;4876452;29;20045;-79
2022/05/09 13:57:38;;;;;;;1.50;1.40;;;;;;;;;;4907912;29;20048;-80
2022/05/09 14:00:07;;;;;;;1.58;1.48;;;;;;;;;;4916933;29;20056;-79
2022/05/09 14:02:43;;;;;;;1.80;1.70;;;;;;;;;;4894871;29;20077;-81
2022/05/09 14:05:12;;;;;;;1.67;1.58;;;;;;;;;;4876080;29;20059;-80
2022/05/09 14:07:41;;;;;;;1.50;1.50;;;;;;;;;;4907779;29;20068;-82
2022/05/09 14:10:28;;;;;;;1.77;1.50;;;;;;;;;;4878848;29;20047;-80
2022/05/09 14:12:57;;;;;;;1.88;1.60;;;;;;;;;;4908456;29;20055;-81
2022/05/09 14:15:30;;;;;;;1.52;1.42;;;;;;;;;;4862715;29;20100;-81
2022/05/09 14:18:07;;;;;;;1.60;1.50;;;;;;;;;;4900575;29;20063;-81
2022/05/09 14:20:36;;;;;;;2.33;1.55;;;;;;;;;;4908581;29;20077;-79
2022/05/09 14:23:05;;;;;;;1.80;1.70;;;;;;;;;;4894959;29;20082;-81
2022/05/09 14:31:30;;;;;;;3.75;1.50;;;;;;;;;;4912214;29;20045;-80
2022/05/09 14:33:58;;;;;;;1.30;0.90;;;;;;;;;;4911127;29;20032;-82
2022/05/09 14:36:37;;;;;;;1.30;1.20;;;;;;;;;;4870364;29;20051;-79
2022/05/09 14:39:27;;;;;;;1.20;1.20;;;;;;;;;;4893086;29;20057;-79
2022/05/09 14:42:35;;;;;;;1.15;1.15;;;;;;;;;;4874009;29;20079;-80
2022/05/09 14:45:05;;;;;;;1.30;1.20;;;;;;;;;;4832582;29;20060;-79
2022/05/09 14:47:52;;;;;;;1.35;1.30;;;;;;;;;;4916341;23;20044;-79
2022/05/09 14:50:31;;;;;;;1.30;1.20;;;;;;;;;;4907098;29;20108;-79
2022/05/09 14:52:58;;;;;;;1.05;1.05;;;;;;;;;;4896358;29;20127;-79
2022/05/09 14:58:16;;;;;;;2.05;1.58;;;;;;;;;;4916344;29;20514;-80
2022/05/09 15:00:52;;;;;;;1.77;1.67;;;;;;;;;;4902246;29;20138;-80
2022/05/09 15:03:21;;;;;;;1.60;1.50;;;;;;;;;;4898233;29;20044;-79
2022/05/09 15:05:49;;;;;;;1.95;1.70;;;;;;;;;;4901284;29;20107;-80
2022/05/09 15:08:17;;;;;;;3.22;1.90;;;;;;;;;;4889048;29;20052;-81
2022/05/09 15:10:46;;;;;;;2.17;2.08;;;;;;;;;;4904759;29;20036;-80
2022/05/09 15:13:17;;;;;;;5.10;2.40;;;;;;;;;;4904081;29;20699;-80
2022/05/09 15:15:49;;;;;;;2.42;2.30;;;;;;;;;;4888368;29;20052;-79
2022/05/09 15:18:16;;;;;;;3.35;2.10;;;;;;;;;;4905846;29;20119;-78
2022/05/09 15:20:44;;;;;;;2.50;2.40;;;;;;;;;;4887924;29;20059;-80
2022/05/09 15:23:11;;;;;;;2.50;2.30;;;;;;;;;;4907876;29;20050;-81
2022/05/09 15:25:42;;;;;;;2.65;2.38;;;;;;;;;;4887606;29;20048;-79
2022/05/09 15:28:10;;;;;;;5.75;2.72;;;;;;;;;;4901886;29;20220;-78
2022/05/09 15:30:37;;;;;;;2.30;2.20;;;;;;;;;;4889638;29;20048;-79
2022/05/09 15:33:05;;;;;;;3.20;2.60;;;;;;;;;;4903564;29;20044;-79
2022/05/09 15:35:32;;;;;;;3.13;2.78;;;;;;;;;;4886953;29;20138;-79